Time;durP1;ratioP1;P1;durP2;ratioP2;P2;SDS_P1;SDS_P2;PMS_P1;PMS_P2;Temp;Humidity;BMP_temperature;BMP_pressure;BME280_temperature;BME280_humidity;BME280_pressure;Samples;Min_cycle;Max_cycle;Signal;HPM_P1;HPM_P2
2022/05/04 00:01:53;;;;;;;0.00;0.00;;;15.40;98.40;;;;;;4995711;28;20026;-83
2022/05/04 00:04:21;;;;;;;0.00;0.00;;;15.40;98.60;;;;;;5006742;28;20061;-80
2022/05/04 00:06:46;;;;;;;0.00;0.00;;;15.40;98.80;;;;;;5002463;28;20464;-81
2022/05/04 00:09:12;;;;;;;0.00;0.00;;;15.40;98.30;;;;;;4999188;28;20106;-80
2022/05/04 00:11:40;;;;;;;0.00;0.00;;;15.40;98.80;;;;;;5005285;28;20030;-83
2022/05/04 00:14:06;;;;;;;0.00;0.00;;;15.40;99.20;;;;;;5002546;28;20026;-83
2022/05/04 00:16:31;;;;;;;0.00;0.00;;;15.40;99.70;;;;;;4994852;28;20096;-81
2022/05/04 00:18:57;;;;;;;0.00;0.00;;;15.40;99.60;;;;;;5004531;28;20100;-84
2022/05/04 00:21:23;;;;;;;0.00;0.00;;;15.40;99.70;;;;;;5001853;28;20267;-85
2022/05/04 00:23:49;;;;;;;0.00;0.00;;;15.40;99.60;;;;;;5002517;28;20140;-78
2022/05/04 00:26:14;;;;;;;0.00;0.00;;;15.40;99.90;;;;;;4996993;28;20026;-84
2022/05/04 00:28:40;;;;;;;0.00;0.00;;;15.40;99.70;;;;;;5020652;28;20022;-84
2022/05/04 00:31:06;;;;;;;0.00;0.00;;;15.40;99.80;;;;;;5003013;28;20026;-84
2022/05/04 00:33:31;;;;;;;0.00;0.00;;;15.30;99.90;;;;;;5003454;28;20045;-85
2022/05/04 00:35:57;;;;;;;0.00;0.00;;;15.40;99.90;;;;;;5018912;28;20056;-85
2022/05/04 00:41:07;;;;;;;0.00;0.00;;;15.40;99.90;;;;;;5002721;28;20244;-78
2022/05/04 00:43:33;;;;;;;0.00;0.00;;;15.40;99.90;;;;;;4999807;28;20026;-84
2022/05/04 00:45:58;;;;;;;0.00;0.00;;;15.40;99.90;;;;;;5009076;28;20623;-75
2022/05/04 00:48:24;;;;;;;0.00;0.00;;;15.40;99.90;;;;;;5005223;28;20101;-81
2022/05/04 00:50:51;;;;;;;0.00;0.00;;;15.40;99.90;;;;;;4995867;28;20266;-79
2022/05/04 00:53:19;;;;;;;0.00;0.00;;;15.40;99.90;;;;;;5005123;28;20161;-77
2022/05/04 00:55:46;;;;;;;0.00;0.00;;;15.30;99.90;;;;;;5001878;28;20045;-80
2022/05/04 01:01:00;;;;;;;0.00;0.00;;;15.30;99.90;;;;;;5003456;28;20056;-81
2022/05/04 01:03:26;;;;;;;0.00;0.00;;;15.30;99.90;;;;;;5009362;28;20116;-78
2022/05/04 01:05:51;;;;;;;0.00;0.00;;;15.30;99.90;;;;;;4995906;28;20185;-82
2022/05/04 01:08:17;;;;;;;0.00;0.00;;;15.30;99.90;;;;;;5002148;28;20256;-77
2022/05/04 01:10:43;;;;;;;0.00;0.00;;;15.30;99.90;;;;;;5005017;28;20250;-82
2022/05/04 01:13:09;;;;;;;0.00;0.00;;;15.30;99.90;;;;;;5002598;28;20018;-76
2022/05/04 01:15:35;;;;;;;0.00;0.00;;;15.20;99.90;;;;;;4994840;28;20309;-82
2022/05/04 01:18:01;;;;;;;0.00;0.00;;;15.30;99.90;;;;;;5006913;28;20095;-77
2022/05/04 01:20:27;;;;;;;0.00;0.00;;;15.30;99.90;;;;;;4999863;28;20249;-80
2022/05/04 01:22:53;;;;;;;0.00;0.00;;;15.20;99.90;;;;;;4999005;28;20125;-84
2022/05/04 01:25:20;;;;;;;0.00;0.00;;;15.20;99.90;;;;;;4994846;28;20066;-79
2022/05/04 01:27:45;;;;;;;0.00;0.00;;;15.20;99.90;;;;;;5005014;28;20022;-84
2022/05/04 01:30:32;;;;;;;0.00;0.00;;;15.20;99.90;;;;;;4998071;28;20028;-83
2022/05/04 01:33:01;;;;;;;0.00;0.00;;;15.20;99.90;;;;;;5004699;28;20088;-83
2022/05/04 01:35:26;;;;;;;0.00;0.00;;;15.20;99.90;;;;;;4990543;28;20026;-84
2022/05/04 01:37:52;;;;;;;0.00;0.00;;;15.10;99.90;;;;;;4999391;28;20089;-83
2022/05/04 01:40:18;;;;;;;0.00;0.00;;;15.10;99.90;;;;;;4997365;28;20026;-78
2022/05/04 01:42:44;;;;;;;0.00;0.00;;;15.10;99.90;;;;;;5004269;28;20297;-84
2022/05/04 01:45:10;;;;;;;0.00;0.00;;;15.10;99.90;;;;;;4998572;28;20250;-77
2022/05/04 01:47:36;;;;;;;0.00;0.00;;;15.10;99.90;;;;;;4997789;28;20087;-79
2022/05/04 01:50:03;;;;;;;0.00;0.00;;;15.10;99.90;;;;;;4995248;28;20034;-76
2022/05/04 01:52:29;;;;;;;0.00;0.00;;;15.10;99.90;;;;;;5008623;28;20287;-77
2022/05/04 01:54:55;;;;;;;0.00;0.00;;;15.00;99.90;;;;;;5005483;28;20018;-82
2022/05/04 01:57:22;;;;;;;0.00;0.00;;;15.00;99.90;;;;;;4997763;28;20164;-80
2022/05/04 01:59:48;;;;;;;0.00;0.00;;;15.00;99.90;;;;;;5000998;28;20050;-83
2022/05/04 02:02:13;;;;;;;0.00;0.00;;;15.00;99.90;;;;;;5007496;28;20100;-82
2022/05/04 02:04:40;;;;;;;0.00;0.00;;;14.90;99.90;;;;;;4992387;28;20186;-79
2022/05/04 02:07:10;;;;;;;0.00;0.00;;;14.90;99.90;;;;;;4996120;28;20037;-80
2022/05/04 02:09:36;;;;;;;0.00;0.00;;;14.80;99.90;;;;;;4997873;28;20033;-83
2022/05/04 02:12:04;;;;;;;0.00;0.00;;;14.80;99.90;;;;;;4997096;28;20081;-77
2022/05/04 02:14:32;;;;;;;0.00;0.00;;;14.80;99.90;;;;;;5007422;28;20057;-81
2022/05/04 02:16:58;;;;;;;0.00;0.00;;;14.70;99.90;;;;;;5003712;28;20053;-82
2022/05/04 02:19:24;;;;;;;0.00;0.00;;;14.70;99.90;;;;;;4981631;28;20141;-83
2022/05/04 02:21:50;;;;;;;0.00;0.00;;;14.60;99.90;;;;;;4997390;28;20113;-77
2022/05/04 02:24:16;;;;;;;0.00;0.00;;;14.70;99.90;;;;;;4994896;28;20067;-82
2022/05/04 02:26:42;;;;;;;0.00;0.00;;;14.60;99.90;;;;;;4996318;28;20030;-83
2022/05/04 02:29:07;;;;;;;0.00;0.00;;;14.60;99.90;;;;;;5005045;28;20044;-79
2022/05/04 02:31:33;;;;;;;0.00;0.00;;;14.60;99.90;;;;;;5007452;28;20030;-83
2022/05/04 02:33:59;;;;;;;0.00;0.00;;;14.60;99.90;;;;;;5008279;28;20171;-77
2022/05/04 02:39:09;;;;;;;0.00;0.00;;;14.50;99.90;;;;;;5005611;28;20032;-78
2022/05/04 02:41:34;;;;;;;0.00;0.00;;;14.50;99.90;;;;;;5003651;28;20053;-87
2022/05/04 02:44:03;;;;;;;0.00;0.00;;;14.50;99.90;;;;;;5005754;28;20033;-86
2022/05/04 02:46:30;;;;;;;0.00;0.00;;;14.50;99.90;;;;;;4998115;28;20309;-76
2022/05/04 02:48:56;;;;;;;0.00;0.00;;;14.50;99.90;;;;;;5002482;28;20025;-78
2022/05/04 02:51:22;;;;;;;0.00;0.00;;;14.50;99.90;;;;;;5002503;28;20037;-83
2022/05/04 02:53:48;;;;;;;0.00;0.00;;;14.50;99.90;;;;;;5000446;28;20575;-83
2022/05/04 02:56:32;;;;;;;0.00;0.00;;;14.50;99.90;;;;;;5003827;28;20049;-85
2022/05/04 02:58:58;;;;;;;0.00;0.00;;;14.50;99.90;;;;;;4999019;28;20267;-84
2022/05/04 03:04:08;;;;;;;0.00;0.00;;;14.50;99.90;;;;;;5003383;28;20147;-82
2022/05/04 03:06:35;;;;;;;0.00;0.00;;;14.50;99.90;;;;;;4999195;28;20101;-83
2022/05/04 03:09:02;;;;;;;0.00;0.00;;;14.50;99.90;;;;;;5021241;28;20096;-83
2022/05/04 03:14:12;;;;;;;0.00;0.00;;;14.50;99.90;;;;;;5002654;28;20029;-83
2022/05/04 03:16:39;;;;;;;0.00;0.00;;;14.50;99.90;;;;;;5001432;28;20223;-80
2022/05/04 03:19:06;;;;;;;0.00;0.00;;;14.50;99.90;;;;;;5004320;28;20045;-76
2022/05/04 03:21:32;;;;;;;0.00;0.00;;;14.50;99.90;;;;;;5002666;28;20093;-83
2022/05/04 03:23:58;;;;;;;0.00;0.00;;;14.50;99.90;;;;;;5008262;28;20030;-79
2022/05/04 03:26:24;;;;;;;0.00;0.00;;;14.50;99.90;;;;;;5003976;28;20018;-85
2022/05/04 03:28:50;;;;;;;0.00;0.00;;;14.50;99.90;;;;;;5015475;28;20041;-80
2022/05/04 03:31:16;;;;;;;0.00;0.00;;;14.50;99.90;;;;;;5000578;28;20053;-83
2022/05/04 03:33:42;;;;;;;0.00;0.00;;;14.50;99.90;;;;;;5007390;28;20221;-84
2022/05/04 03:36:08;;;;;;;0.00;0.00;;;14.50;99.90;;;;;;4997894;28;20025;-82
2022/05/04 03:38:33;;;;;;;0.00;0.00;;;14.50;99.90;;;;;;5006615;28;20085;-78
2022/05/04 03:40:59;;;;;;;0.00;0.00;;;14.60;99.90;;;;;;5004415;28;20042;-77
2022/05/04 03:43:25;;;;;;;0.00;0.00;;;14.50;99.90;;;;;;5001899;28;20149;-83
2022/05/04 03:45:51;;;;;;;0.00;0.00;;;14.50;99.90;;;;;;5024035;28;20034;-83
2022/05/04 03:48:16;;;;;;;0.00;0.00;;;14.50;99.90;;;;;;4999658;28;20200;-83
2022/05/04 03:50:45;;;;;;;0.00;0.00;;;14.50;99.90;;;;;;5007090;28;20057;-82
2022/05/04 03:53:11;;;;;;;0.00;0.00;;;14.50;99.90;;;;;;4999180;28;20269;-81
2022/05/04 03:55:36;;;;;;;0.00;0.00;;;14.50;99.90;;;;;;4999883;28;20034;-82
2022/05/04 03:58:02;;;;;;;0.00;0.00;;;14.50;99.90;;;;;;5010539;28;20022;-83
2022/05/04 04:00:28;;;;;;;0.00;0.00;;;14.50;99.90;;;;;;5001334;28;20598;-83
2022/05/04 04:02:54;;;;;;;0.00;0.00;;;14.50;99.90;;;;;;5005230;28;20173;-83
2022/05/04 04:05:19;;;;;;;0.00;0.00;;;14.50;99.90;;;;;;5003294;28;20337;-77
2022/05/04 04:07:45;;;;;;;0.00;0.00;;;14.60;99.90;;;;;;5001997;28;20218;-83
2022/05/04 04:10:11;;;;;;;0.00;0.00;;;14.50;99.90;;;;;;5010421;28;20313;-81
2022/05/04 04:12:36;;;;;;;0.00;0.00;;;14.50;99.90;;;;;;4993162;28;20230;-83
2022/05/04 04:15:02;;;;;;;0.00;0.00;;;14.50;99.90;;;;;;5001866;28;20165;-84
2022/05/04 04:17:29;;;;;;;0.00;0.00;;;14.60;99.90;;;;;;4996590;28;20348;-77
2022/05/04 04:22:39;;;;;;;0.00;0.00;;;14.50;99.90;;;;;;5001013;28;20225;-80
2022/05/04 04:25:05;;;;;;;0.00;0.00;;;14.50;99.90;;;;;;5000015;28;20031;-75
2022/05/04 04:27:32;;;;;;;0.00;0.00;;;14.60;99.90;;;;;;5005494;28;20033;-82
2022/05/04 04:29:58;;;;;;;0.00;0.00;;;14.60;99.90;;;;;;4997895;28;20743;-77
2022/05/04 04:32:24;;;;;;;0.00;0.00;;;14.60;99.90;;;;;;4998769;28;20170;-82
2022/05/04 04:34:49;;;;;;;0.00;0.00;;;14.60;99.90;;;;;;5002247;28;20033;-80
2022/05/04 04:37:15;;;;;;;0.00;0.00;;;14.60;99.90;;;;;;5003799;28;20017;-81
2022/05/04 04:39:41;;;;;;;0.00;0.00;;;14.60;99.90;;;;;;5002088;28;20038;-83
2022/05/04 04:42:07;;;;;;;0.00;0.00;;;14.70;99.90;;;;;;4997105;28;20647;-76
2022/05/04 04:44:33;;;;;;;0.00;0.00;;;14.70;99.90;;;;;;4997779;28;20022;-78
2022/05/04 04:46:59;;;;;;;0.00;0.00;;;14.70;99.90;;;;;;5006995;28;20093;-77
2022/05/04 04:49:25;;;;;;;0.00;0.00;;;14.70;99.90;;;;;;5003524;28;20076;-81
2022/05/04 04:51:51;;;;;;;0.00;0.00;;;14.70;99.90;;;;;;4996442;28;20019;-79
2022/05/04 04:54:17;;;;;;;0.00;0.00;;;14.80;99.90;;;;;;4997714;28;20026;-83
2022/05/04 04:56:43;;;;;;;0.00;0.00;;;14.70;99.90;;;;;;5008437;28;20010;-82
2022/05/04 04:59:09;;;;;;;0.00;0.00;;;14.80;99.90;;;;;;5006854;28;20025;-76
2022/05/04 05:01:35;;;;;;;0.00;0.00;;;14.80;99.90;;;;;;4997714;28;20036;-82
2022/05/04 05:04:00;;;;;;;0.00;0.00;;;14.80;99.90;;;;;;5004329;28;20240;-81
2022/05/04 05:06:26;;;;;;;0.00;0.00;;;14.90;99.90;;;;;;4998556;28;20025;-84
2022/05/04 05:08:52;;;;;;;0.00;0.00;;;14.90;99.90;;;;;;5016980;28;20072;-82
2022/05/04 05:11:17;;;;;;;0.00;0.00;;;14.90;99.90;;;;;;5008959;28;20030;-83
2022/05/04 05:16:27;;;;;;;0.00;0.00;;;14.90;99.90;;;;;;4995317;28;20033;-80
2022/05/04 05:18:53;;;;;;;0.00;0.00;;;14.90;99.90;;;;;;4999187;28;20026;-81
2022/05/04 05:21:19;;;;;;;0.00;0.00;;;14.90;99.90;;;;;;4994674;28;20097;-79
2022/05/04 05:23:45;;;;;;;0.00;0.00;;;14.90;99.90;;;;;;5005805;28;20057;-80
2022/05/04 05:26:10;;;;;;;0.00;0.00;;;14.90;99.90;;;;;;5002932;28;20285;-80
2022/05/04 05:28:36;;;;;;;0.00;0.00;;;14.90;99.90;;;;;;5017044;28;20053;-80
2022/05/04 05:31:03;;;;;;;0.00;0.00;;;15.00;99.90;;;;;;5003951;28;20230;-83
2022/05/04 05:33:28;;;;;;;0.00;0.00;;;15.00;99.90;;;;;;4996936;28;20377;-77
2022/05/04 05:35:54;;;;;;;0.00;0.00;;;15.00;99.90;;;;;;4979089;28;20038;-78
2022/05/04 05:38:20;;;;;;;0.00;0.00;;;15.00;99.90;;;;;;4997205;28;20018;-78
2022/05/04 05:40:47;;;;;;;0.00;0.00;;;15.00;99.90;;;;;;5002340;28;20321;-82
2022/05/04 05:43:13;;;;;;;0.00;0.00;;;15.00;99.90;;;;;;4993913;28;20036;-81
2022/05/04 05:45:38;;;;;;;0.00;0.00;;;15.00;99.90;;;;;;5000909;28;20373;-75
2022/05/04 05:48:04;;;;;;;0.00;0.00;;;15.10;99.90;;;;;;5000344;28;20077;-80
2022/05/04 05:50:30;;;;;;;0.00;0.00;;;15.20;99.90;;;;;;5000532;28;20042;-82
2022/05/04 05:52:56;;;;;;;0.00;0.00;;;15.30;99.90;;;;;;4996329;28;20093;-79
2022/05/04 05:55:22;;;;;;;0.00;0.00;;;15.30;99.90;;;;;;4997901;28;20041;-81
2022/05/04 05:57:47;;;;;;;0.00;0.00;;;15.50;99.90;;;;;;5002197;28;20647;-82
2022/05/04 06:00:14;;;;;;;0.00;0.00;;;15.50;99.90;;;;;;5000802;28;20100;-79
2022/05/04 06:02:40;;;;;;;0.00;0.00;;;15.50;99.90;;;;;;4995278;28;20831;-78
2022/05/04 06:05:06;;;;;;;0.00;0.00;;;15.60;99.90;;;;;;5012950;28;20022;-79
2022/05/04 06:07:32;;;;;;;0.00;0.00;;;15.70;99.90;;;;;;4998308;28;20026;-79
2022/05/04 06:09:57;;;;;;;0.00;0.00;;;15.70;99.90;;;;;;5002918;28;20104;-79
2022/05/04 06:12:23;;;;;;;0.00;0.00;;;15.90;99.90;;;;;;5000332;28;20018;-79
2022/05/04 06:14:49;;;;;;;0.00;0.00;;;16.00;99.90;;;;;;5002760;28;20053;-76
2022/05/04 06:17:14;;;;;;;0.00;0.00;;;16.50;99.90;;;;;;5008109;28;20013;-78
2022/05/04 06:19:40;;;;;;;0.00;0.00;;;16.90;99.90;;;;;;5005427;28;20042;-79
2022/05/04 06:22:06;;;;;;;0.00;0.00;;;17.10;99.90;;;;;;5003595;28;20178;-79
2022/05/04 06:24:32;;;;;;;0.00;0.00;;;17.60;99.90;;;;;;5008293;28;20037;-78
2022/05/04 06:26:58;;;;;;;0.00;0.00;;;18.00;99.90;;;;;;5007719;28;20541;-78
2022/05/04 06:34:06;;;;;;;0.00;0.00;;;18.60;99.50;;;;;;5000202;28;20301;-80
2022/05/04 06:34:54;;;;;;;0.00;0.00;;;19.70;97.30;;;;;;5002806;28;20045;-80
2022/05/04 06:37:20;;;;;;;0.00;0.00;;;20.20;95.60;;;;;;5004520;28;20019;-79
2022/05/04 06:39:46;;;;;;;0.00;0.00;;;20.60;94.60;;;;;;4992384;28;20090;-79
2022/05/04 06:42:12;;;;;;;0.00;0.00;;;21.00;92.80;;;;;;5004530;28;20080;-80
2022/05/04 06:44:38;;;;;;;0.00;0.00;;;21.30;93.10;;;;;;5005677;28;20316;-78
2022/05/04 06:47:04;;;;;;;0.00;0.00;;;21.60;91.90;;;;;;5007366;28;20070;-78
2022/05/04 06:49:30;;;;;;;0.00;0.00;;;21.80;91.10;;;;;;4998592;28;20319;-78
2022/05/04 06:51:56;;;;;;;0.00;0.00;;;21.80;92.30;;;;;;5002065;28;20018;-78
2022/05/04 06:54:21;;;;;;;0.00;0.00;;;21.70;91.30;;;;;;4998932;28;20088;-79
2022/05/04 06:56:47;;;;;;;0.00;0.00;;;21.60;91.00;;;;;;5004446;28;20423;-78
2022/05/04 06:59:13;;;;;;;0.00;0.00;;;21.50;91.20;;;;;;5002996;28;20089;-78
2022/05/04 07:01:38;;;;;;;0.00;0.00;;;21.30;90.90;;;;;;5001359;28;20018;-79
2022/05/04 07:04:04;;;;;;;0.00;0.00;;;20.70;91.30;;;;;;4999824;28;20363;-76
2022/05/04 07:06:30;;;;;;;0.00;0.00;;;20.40;91.80;;;;;;4992003;28;20509;-78
2022/05/04 07:08:55;;;;;;;0.00;0.00;;;20.00;92.30;;;;;;4995725;28;20018;-78
2022/05/04 07:11:21;;;;;;;0.00;0.00;;;19.80;93.10;;;;;;5020503;28;20270;-80
2022/05/04 07:13:46;;;;;;;0.00;0.00;;;19.60;93.50;;;;;;5000926;28;20018;-80
2022/05/04 07:16:31;;;;;;;0.00;0.00;;;19.40;93.20;;;;;;5006225;28;20278;-79
2022/05/04 07:18:57;;;;;;;0.00;0.00;;;19.10;94.10;;;;;;5004317;28;20025;-81
2022/05/04 07:21:22;;;;;;;0.00;0.00;;;19.10;94.10;;;;;;5004115;28;20022;-77
2022/05/04 07:23:48;;;;;;;0.00;0.00;;;19.00;94.50;;;;;;4994860;28;20057;-77
2022/05/04 07:26:13;;;;;;;0.00;0.00;;;18.90;95.00;;;;;;5022255;28;20137;-77
2022/05/04 07:28:39;;;;;;;0.00;0.00;;;18.80;94.60;;;;;;5006564;28;20145;-81
2022/05/04 07:31:05;;;;;;;0.00;0.00;;;18.60;94.80;;;;;;5003460;28;20046;-78
2022/05/04 07:33:31;;;;;;;0.00;0.00;;;18.50;94.90;;;;;;5003939;28;20086;-81
2022/05/04 07:35:56;;;;;;;0.00;0.00;;;18.40;95.10;;;;;;5025418;28;20192;-80
2022/05/04 07:38:22;;;;;;;0.00;0.00;;;18.30;95.30;;;;;;5008055;28;20025;-81
2022/05/04 07:43:32;;;;;;;0.00;0.00;;;18.20;95.90;;;;;;5006941;28;20049;-80
2022/05/04 07:45:57;;;;;;;0.00;0.00;;;18.20;95.70;;;;;;4994987;28;20030;-79
2022/05/04 07:48:23;;;;;;;0.00;0.00;;;18.30;96.10;;;;;;5005805;28;20084;-76
2022/05/04 07:50:49;;;;;;;0.00;0.00;;;18.20;95.30;;;;;;4999361;28;20038;-78
2022/05/04 07:53:14;;;;;;;0.00;0.00;;;18.20;95.70;;;;;;5007359;28;20201;-77
2022/05/04 07:55:40;;;;;;;0.00;0.00;;;18.20;96.10;;;;;;5006493;28;20049;-86
2022/05/04 07:58:06;;;;;;;0.00;0.00;;;18.30;96.40;;;;;;5008943;28;20089;-80
2022/05/04 08:06:00;;;;;;;0.00;0.00;;;18.50;95.80;;;;;;5003383;28;20044;-82
2022/05/04 08:08:26;;;;;;;0.00;0.00;;;18.60;96.10;;;;;;5006874;28;20022;-85
2022/05/04 08:10:52;;;;;;;0.00;0.00;;;18.60;95.90;;;;;;5010758;28;20061;-83
2022/05/04 08:13:20;;;;;;;0.00;0.00;;;18.70;95.70;;;;;;5004424;28;20100;-86
2022/05/04 08:15:46;;;;;;;0.00;0.00;;;18.90;96.20;;;;;;5004000;28;20133;-86
2022/05/04 08:18:12;;;;;;;0.00;0.00;;;19.00;95.60;;;;;;5006615;28;20018;-87
2022/05/04 08:20:37;;;;;;;0.00;0.00;;;19.00;95.80;;;;;;5001088;28;20120;-86
2022/05/04 08:23:03;;;;;;;0.00;0.00;;;19.10;95.20;;;;;;5002006;28;20025;-80
2022/05/04 08:25:30;;;;;;;0.00;0.00;;;19.20;94.90;;;;;;5007010;28;20025;-86
2022/05/04 08:27:56;;;;;;;0.00;0.00;;;19.20;94.90;;;;;;4998624;28;20061;-86
2022/05/04 08:30:23;;;;;;;0.00;0.00;;;19.30;95.20;;;;;;5002394;28;20030;-86
2022/05/04 08:32:50;;;;;;;0.00;0.00;;;19.30;94.90;;;;;;5008051;28;20036;-84
2022/05/04 08:35:17;;;;;;;0.00;0.00;;;19.40;94.60;;;;;;5002990;28;20046;-85
2022/05/04 08:37:43;;;;;;;0.00;0.00;;;19.50;94.30;;;;;;5008004;28;20068;-86
2022/05/04 08:40:09;;;;;;;0.00;0.00;;;19.70;92.60;;;;;;5003556;28;20050;-76
2022/05/04 08:42:43;;;;;;;0.00;0.00;;;19.90;92.60;;;;;;5007970;28;20041;-87
2022/05/04 08:45:11;;;;;;;0.00;0.00;;;20.00;93.00;;;;;;5010598;28;20030;-82
2022/05/04 08:47:41;;;;;;;0.00;0.00;;;20.30;93.40;;;;;;5007443;28;20110;-86
2022/05/04 08:50:13;;;;;;;0.00;0.00;;;20.60;92.70;;;;;;5008830;28;20098;-87
2022/05/04 08:52:40;;;;;;;0.00;0.00;;;20.80;92.60;;;;;;5000052;28;20041;-85
2022/05/04 08:55:07;;;;;;;0.00;0.00;;;21.00;90.80;;;;;;5008736;28;20022;-86
2022/05/04 08:57:33;;;;;;;0.00;0.00;;;21.00;92.00;;;;;;5004146;28;20022;-87
2022/05/04 08:59:59;;;;;;;0.00;0.00;;;21.00;92.10;;;;;;5006409;28;20038;-83
2022/05/04 09:02:24;;;;;;;0.00;0.00;;;20.90;92.10;;;;;;5004527;28;20185;-86
2022/05/04 09:04:50;;;;;;;0.00;0.00;;;21.40;92.90;;;;;;4987088;28;20112;-84
2022/05/04 09:07:26;;;;;;;0.00;0.00;;;22.70;94.30;;;;;;5008599;28;20022;-88
2022/05/04 09:09:52;;;;;;;0.00;0.00;;;24.30;91.60;;;;;;5008723;28;20049;-88
2022/05/04 09:12:18;;;;;;;0.00;0.00;;;25.80;89.40;;;;;;5008606;28;20406;-87
2022/05/04 09:14:44;;;;;;;0.00;0.00;;;26.90;83.90;;;;;;5005893;28;20065;-87
2022/05/04 09:17:11;;;;;;;0.00;0.00;;;28.30;81.60;;;;;;4994357;28;20054;-88
2022/05/04 09:19:38;;;;;;;0.00;0.00;;;29.20;75.10;;;;;;5003158;28;20042;-88
2022/05/04 09:22:16;;;;;;;0.00;0.00;;;29.10;73.30;;;;;;5010911;28;20787;-87
2022/05/04 09:24:44;;;;;;;0.00;0.00;;;29.30;72.60;;;;;;5009242;28;20336;-87
2022/05/04 09:27:09;;;;;;;0.00;0.00;;;29.90;70.70;;;;;;5006777;28;20075;-87
2022/05/04 09:29:37;;;;;;;0.00;0.00;;;30.10;67.60;;;;;;5008887;28;20014;-89
2022/05/04 09:32:15;;;;;;;0.00;0.00;;;30.50;65.80;;;;;;5007054;28;20089;-84
2022/05/04 09:34:42;;;;;;;0.00;0.00;;;30.90;66.90;;;;;;5003525;28;20037;-89
2022/05/04 09:45:36;;;;;;;0.00;0.00;;;31.60;60.90;;;;;;5011773;28;20108;-87
2022/05/04 09:48:03;;;;;;;0.00;0.00;;;32.30;57.10;;;;;;5001356;28;20030;-89
2022/05/04 09:50:29;;;;;;;0.00;0.00;;;32.80;54.60;;;;;;5001106;28;20030;-87
2022/05/04 09:52:59;;;;;;;0.00;0.00;;;32.80;55.40;;;;;;5000861;28;20049;-82
2022/05/04 09:55:26;;;;;;;0.00;0.00;;;33.10;57.00;;;;;;5000049;28;20018;-86
2022/05/04 09:57:53;;;;;;;0.00;0.00;;;32.70;57.30;;;;;;5010537;28;20285;-84
2022/05/04 10:00:22;;;;;;;0.00;0.00;;;32.70;57.00;;;;;;5009071;28;20026;-81
2022/05/04 10:02:49;;;;;;;0.00;0.00;;;33.20;56.70;;;;;;4998951;28;20463;-86
2022/05/04 10:05:16;;;;;;;0.00;0.00;;;34.00;50.30;;;;;;5009733;28;20046;-86
2022/05/04 10:07:42;;;;;;;0.00;0.00;;;34.20;54.00;;;;;;5011626;28;20022;-86
2022/05/04 10:10:10;;;;;;;0.00;0.00;;;33.80;53.70;;;;;;5007468;28;20057;-78
2022/05/04 10:12:41;;;;;;;0.00;0.00;;;33.80;53.80;;;;;;4996613;28;20096;-84
2022/05/04 10:15:10;;;;;;;0.00;0.00;;;34.40;55.60;;;;;;5009324;28;20033;-84
2022/05/04 10:17:51;;;;;;;0.00;0.00;;;34.60;49.70;;;;;;5000488;28;20030;-86
2022/05/04 10:20:22;;;;;;;0.00;0.00;;;34.40;50.60;;;;;;5008285;28;20022;-83
2022/05/04 10:22:59;;;;;;;0.00;0.00;;;34.30;52.10;;;;;;5006895;28;20026;-79
2022/05/04 10:25:26;;;;;;;0.00;0.00;;;34.50;54.50;;;;;;5006759;28;20084;-82
2022/05/04 10:28:22;;;;;;;0.00;0.00;;;34.70;50.50;;;;;;5006060;28;20049;-89
2022/05/04 10:30:59;;;;;;;0.00;0.00;;;34.50;52.90;;;;;;5005082;28;20061;-79
2022/05/04 10:33:31;;;;;;;0.00;0.00;;;34.00;52.00;;;;;;5019822;28;20292;-81
2022/05/04 10:36:12;;;;;;;0.00;0.00;;;33.90;51.20;;;;;;5002528;28;20021;-81
2022/05/04 10:38:42;;;;;;;0.00;0.00;;;33.40;55.20;;;;;;4981758;28;20166;-78
2022/05/04 10:41:09;;;;;;;0.00;0.00;;;33.50;53.10;;;;;;5006751;28;20046;-79
2022/05/04 10:43:46;;;;;;;;;;;33.40;50.90;;;;;;5006582;28;20045;-80
2022/05/04 10:46:23;;;;;;;0.00;0.00;;;33.30;52.90;;;;;;5008665;28;20164;-79
2022/05/04 10:48:58;;;;;;;0.00;0.00;;;33.40;50.50;;;;;;5009306;28;20057;-81
2022/05/04 10:51:28;;;;;;;0.00;0.00;;;33.70;53.10;;;;;;5005066;28;20026;-79
2022/05/04 10:54:01;;;;;;;0.00;0.00;;;34.30;51.10;;;;;;5009365;28;20033;-80
2022/05/04 10:56:28;;;;;;;0.00;0.00;;;35.10;51.20;;;;;;5010020;28;20018;-79
2022/05/04 10:59:01;;;;;;;0.00;0.00;;;34.40;48.20;;;;;;5023835;28;20034;-79
2022/05/04 11:01:30;;;;;;;0.00;0.00;;;34.70;49.30;;;;;;5005186;28;20266;-79
2022/05/04 11:04:13;;;;;;;0.00;0.00;;;34.50;47.60;;;;;;5006447;28;20369;-79
2022/05/04 11:06:56;;;;;;;0.00;0.00;;;34.30;49.00;;;;;;5004260;28;20339;-80
2022/05/04 11:09:31;;;;;;;0.00;0.00;;;33.80;49.30;;;;;;5000035;28;20093;-79
2022/05/04 11:11:59;;;;;;;0.00;0.00;;;33.60;49.60;;;;;;5009849;28;20054;-80
2022/05/04 11:14:25;;;;;;;0.00;0.00;;;33.70;49.80;;;;;;5000446;28;20117;-80
2022/05/04 11:16:53;;;;;;;0.00;0.00;;;33.30;49.30;;;;;;5002631;28;20262;-80
2022/05/04 11:19:22;;;;;;;0.00;0.00;;;33.20;49.70;;;;;;5002618;28;20026;-80
2022/05/04 11:21:48;;;;;;;0.00;0.00;;;33.80;50.30;;;;;;5011681;28;20052;-78
2022/05/04 11:24:15;;;;;;;0.00;0.00;;;33.70;49.80;;;;;;5004059;28;20049;-80
2022/05/04 11:26:43;;;;;;;0.00;0.00;;;32.60;50.10;;;;;;5006277;28;20050;-79
2022/05/04 11:29:14;;;;;;;0.00;0.00;;;33.90;49.10;;;;;;5010216;28;20102;-80
2022/05/04 11:31:46;;;;;;;0.00;0.00;;;34.30;50.50;;;;;;4998410;28;20337;-81
2022/05/04 11:34:16;;;;;;;0.00;0.00;;;33.90;49.60;;;;;;5001852;28;20034;-79
2022/05/04 11:36:47;;;;;;;0.00;0.00;;;34.50;50.30;;;;;;5007767;28;20091;-81
2022/05/04 11:39:18;;;;;;;0.00;0.00;;;34.50;49.30;;;;;;5002224;28;20089;-80
2022/05/04 11:41:47;;;;;;;0.00;0.00;;;33.50;49.10;;;;;;5008644;28;20034;-81
2022/05/04 11:44:14;;;;;;;0.00;0.00;;;32.70;47.50;;;;;;5004460;28;20049;-80
2022/05/04 11:46:47;;;;;;;0.00;0.00;;;32.90;50.50;;;;;;5005692;28;20266;-80
2022/05/04 11:49:14;;;;;;;0.00;0.00;;;32.40;49.20;;;;;;5004607;28;20026;-84
2022/05/04 11:51:41;;;;;;;0.00;0.00;;;31.70;48.50;;;;;;5007485;28;20120;-82
2022/05/04 11:54:06;;;;;;;0.00;0.00;;;30.80;49.10;;;;;;5000724;28;20096;-77
2022/05/04 11:56:34;;;;;;;0.00;0.00;;;29.50;50.90;;;;;;5009336;28;20054;-78
2022/05/04 11:59:00;;;;;;;0.00;0.00;;;28.60;53.60;;;;;;5007442;28;20068;-76
2022/05/04 12:01:26;;;;;;;0.00;0.00;;;27.90;54.20;;;;;;4998934;28;20121;-78
2022/05/04 12:03:52;;;;;;;0.00;0.00;;;27.20;55.40;;;;;;5003238;28;20128;-77
2022/05/04 12:06:19;;;;;;;0.00;0.00;;;26.70;55.20;;;;;;5001865;28;20107;-76
2022/05/04 12:08:45;;;;;;;0.00;0.00;;;26.30;56.60;;;;;;5008663;28;20026;-79
2022/05/04 12:11:11;;;;;;;0.00;0.00;;;26.00;57.20;;;;;;5010059;28;20053;-79
2022/05/04 12:13:40;;;;;;;0.00;0.00;;;25.90;57.90;;;;;;5001223;28;20045;-81
2022/05/04 12:16:07;;;;;;;0.00;0.00;;;25.80;55.70;;;;;;5008036;28;20018;-78
2022/05/04 12:18:35;;;;;;;0.00;0.00;;;25.70;57.40;;;;;;5003954;28;20061;-79
2022/05/04 12:21:22;;;;;;;0.00;0.00;;;25.50;56.80;;;;;;4998387;28;20074;-80
2022/05/04 12:23:50;;;;;;;0.00;0.00;;;25.40;56.20;;;;;;5004724;28;20447;-80
2022/05/04 12:26:17;;;;;;;0.00;0.00;;;25.20;59.60;;;;;;5009852;28;20025;-80
2022/05/04 12:33:08;;;;;;;0.00;0.00;;;25.00;59.30;;;;;;5008709;28;20289;-81
2022/05/04 12:34:15;;;;;;;0.00;0.00;;;24.30;59.20;;;;;;5003876;28;20038;-81
2022/05/04 12:36:44;;;;;;;0.00;0.00;;;24.10;59.40;;;;;;4999423;28;20125;-81
2022/05/04 12:39:10;;;;;;;0.00;0.00;;;24.00;61.70;;;;;;4998070;28;20261;-79
2022/05/04 12:41:36;;;;;;;0.00;0.00;;;23.80;61.80;;;;;;5007954;28;20164;-78
2022/05/04 12:44:04;;;;;;;0.00;0.00;;;23.80;62.00;;;;;;5001172;28;20284;-79
2022/05/04 12:46:29;;;;;;;0.00;0.00;;;23.80;61.10;;;;;;5004276;28;20069;-78
2022/05/04 12:48:56;;;;;;;0.00;0.00;;;23.60;62.30;;;;;;5005652;28;20025;-79
2022/05/04 12:51:24;;;;;;;0.00;0.00;;;23.40;61.20;;;;;;5008480;28;20045;-77
2022/05/04 12:53:50;;;;;;;0.00;0.00;;;23.30;63.60;;;;;;4993361;28;20026;-80
2022/05/04 12:59:02;;;;;;;0.00;0.00;;;23.10;63.70;;;;;;4999593;28;20072;-78
2022/05/04 13:01:30;;;;;;;0.00;0.00;;;22.90;60.50;;;;;;5001954;28;20053;-78
2022/05/04 13:03:57;;;;;;;0.00;0.00;;;22.40;60.40;;;;;;5006796;28;20124;-78
2022/05/04 13:06:23;;;;;;;0.00;0.00;;;21.90;61.40;;;;;;5001388;28;20072;-77
2022/05/04 13:08:49;;;;;;;0.00;0.00;;;21.60;62.40;;;;;;5002394;28;20049;-77
2022/05/04 13:11:16;;;;;;;0.00;0.00;;;21.40;64.00;;;;;;5004235;28;20089;-80
2022/05/04 13:13:41;;;;;;;0.00;0.00;;;21.00;64.70;;;;;;4995794;28;20018;-78
2022/05/04 13:16:07;;;;;;;0.00;0.00;;;20.80;69.60;;;;;;5003102;28;20110;-80
2022/05/04 13:18:33;;;;;;;0.00;0.00;;;20.60;70.50;;;;;;5000995;28;20057;-77
2022/05/04 13:20:59;;;;;;;0.00;0.00;;;20.60;71.00;;;;;;5018042;28;20038;-77
2022/05/04 13:23:24;;;;;;;0.00;0.00;;;20.40;71.90;;;;;;4994911;28;20022;-78
2022/05/04 13:25:50;;;;;;;0.00;0.00;;;20.30;73.50;;;;;;5003822;28;20021;-78
2022/05/04 13:28:16;;;;;;;0.00;0.00;;;20.20;74.80;;;;;;5007851;28;20117;-79
2022/05/04 13:30:42;;;;;;;0.00;0.00;;;20.20;75.40;;;;;;5005629;28;20237;-78
2022/05/04 13:33:08;;;;;;;0.00;0.00;;;20.20;75.80;;;;;;5000285;28;20053;-76